AAL2991 KEWR-KCLT
Flight info
| Callsign | AAL2991 |
|---|---|
| Flight time | 1h 17m |
| Altitude | 32000 |
| Route | BIGGY Q75 GVE AIROW CHSLY6 |
| Aircraft | E75L/M-SDE3GILORVW/S |
Departure
| Time | 2026-04-22 00:07 |
|---|---|
| Airport | Newark Liberty International Airport (KEWR) |
Arrival
| Time | 2026-04-22 01:25 |
|---|---|
| Airport | Charlotte Douglas International Airport (KCLT) |
| Time | Latitude | Longitude | Altitude | Speed | Heading |
|---|---|---|---|---|---|
| 2026-04-21 23:52 | 40.69559 | -74.17236 | 18 ft | 0 kts | 315° |
| 2026-04-22 00:01 | 40.69549 | -74.17223 | 18 ft | 3 kts | 315° |
| 2026-04-22 00:01 | 40.69537 | -74.17208 | 17 ft | 2 kts | 315° |
| 2026-04-22 00:01 | 40.69527 | -74.17197 | 18 ft | 2 kts | 351° |
| 2026-04-22 00:01 | 40.69517 | -74.17198 | 18 ft | 0 kts | 38° |
| 2026-04-22 00:02 | 40.69518 | -74.17197 | 18 ft | 0 kts | 40° |
| 2026-04-22 00:02 | 40.69520 | -74.17195 | 19 ft | 0 kts | 42° |
| 2026-04-22 00:03 | 40.69520 | -74.17194 | 17 ft | 0 kts | 43° |
| 2026-04-22 00:03 | 40.69520 | -74.17193 | 18 ft | 0 kts | 58° |
| 2026-04-22 00:03 | 40.69520 | -74.17178 | 19 ft | 6 kts | 95° |
| 2026-04-22 00:04 | 40.69519 | -74.17104 | 17 ft | 9 kts | 81° |
| 2026-04-22 00:04 | 40.69529 | -74.17016 | 17 ft | 11 kts | 79° |
| 2026-04-22 00:04 | 40.69567 | -74.16936 | 18 ft | 12 kts | 28° |
| 2026-04-22 00:04 | 40.69649 | -74.16884 | 17 ft | 14 kts | 25° |
| 2026-04-22 00:05 | 40.69742 | -74.16825 | 17 ft | 16 kts | 26° |
| 2026-04-22 00:05 | 40.69840 | -74.16772 | 15 ft | 16 kts | 10° |
| 2026-04-22 00:05 | 40.69947 | -74.16756 | 15 ft | 13 kts | 13° |
| 2026-04-22 00:05 | 40.69992 | -74.16658 | 15 ft | 14 kts | 88° |
| 2026-04-22 00:06 | 40.69998 | -74.16550 | 13 ft | 11 kts | 51° |
| 2026-04-22 00:06 | 40.70059 | -74.16494 | 13 ft | 10 kts | 68° |
| 2026-04-22 00:06 | 40.70052 | -74.16402 | 14 ft | 11 kts | 129° |
| 2026-04-22 00:06 | 40.69999 | -74.16383 | 12 ft | 0 kts | 204° |
| 2026-04-22 00:07 | 40.69984 | -74.16393 | 12 ft | 16 kts | 206° |
| 2026-04-22 00:07 | 40.69635 | -74.16614 | 19 ft | 93 kts | 206° |
| 2026-04-22 00:07 | 40.68852 | -74.17111 | 123 ft | 147 kts | 208° |
| 2026-04-22 00:07 | 40.67956 | -74.17804 | 1019 ft | 150 kts | 208° |
| 2026-04-22 00:08 | 40.67109 | -74.18556 | 2120 ft | 146 kts | 212° |
| 2026-04-22 00:08 | 40.66197 | -74.19165 | 3033 ft | 154 kts | 195° |
| 2026-04-22 00:08 | 40.65067 | -74.19222 | 3877 ft | 173 kts | 182° |
| 2026-04-22 00:08 | 40.63813 | -74.19114 | 4813 ft | 186 kts | 181° |
| 2026-04-22 00:09 | 40.62493 | -74.19206 | 5774 ft | 193 kts | 200° |
| 2026-04-22 00:09 | 40.61272 | -74.19945 | 6722 ft | 196 kts | 224° |
| 2026-04-22 00:09 | 40.60335 | -74.21239 | 7585 ft | 203 kts | 245° |
| 2026-04-22 00:09 | 40.59801 | -74.23005 | 8473 ft | 213 kts | 266° |
| 2026-04-22 00:10 | 40.59607 | -74.25004 | 9517 ft | 226 kts | 271° |
| 2026-04-22 00:10 | 40.59453 | -74.27142 | 10547 ft | 243 kts | 271° |
| 2026-04-22 00:10 | 40.59260 | -74.29434 | 11495 ft | 260 kts | 270° |
| 2026-04-22 00:10 | 40.59086 | -74.31829 | 12465 ft | 272 kts | 273° |
| 2026-04-22 00:11 | 40.59038 | -74.34377 | 13477 ft | 285 kts | 274° |
| 2026-04-22 00:11 | 40.59026 | -74.37031 | 14560 ft | 292 kts | 275° |
| 2026-04-22 00:11 | 40.58997 | -74.39744 | 15693 ft | 297 kts | 274° |
| 2026-04-22 00:11 | 40.58946 | -74.42455 | 16777 ft | 302 kts | 274° |
| 2026-04-22 00:12 | 40.58892 | -74.45254 | 17666 ft | 315 kts | 274° |
| 2026-04-22 00:12 | 40.58839 | -74.48270 | 17826 ft | 345 kts | 273° |
| 2026-04-22 00:12 | 40.58773 | -74.51563 | 17928 ft | 374 kts | 273° |
| 2026-04-22 00:12 | 40.58698 | -74.54906 | 17950 ft | 351 kts | 273° |
| 2026-04-22 00:13 | 40.58635 | -74.58004 | 17931 ft | 327 kts | 274° |
| 2026-04-22 00:13 | 40.58578 | -74.60903 | 17918 ft | 309 kts | 274° |
| 2026-04-22 00:13 | 40.58524 | -74.63716 | 17928 ft | 308 kts | 274° |
| 2026-04-22 00:13 | 40.58467 | -74.66559 | 17950 ft | 311 kts | 274° |
| 2026-04-22 00:14 | 40.58370 | -74.69375 | 17963 ft | 314 kts | 269° |
| 2026-04-22 00:14 | 40.57831 | -74.72204 | 17972 ft | 324 kts | 256° |
| 2026-04-22 00:14 | 40.56778 | -74.74874 | 17965 ft | 331 kts | 245° |
| 2026-04-22 00:14 | 40.55494 | -74.77409 | 17963 ft | 334 kts | 243° |
| 2026-04-22 00:15 | 40.54126 | -74.79894 | 18599 ft | 337 kts | 240° |
| 2026-04-22 00:15 | 40.52593 | -74.82232 | 19198 ft | 344 kts | 236° |
| 2026-04-22 00:15 | 40.50962 | -74.84578 | 19840 ft | 348 kts | 235° |
| 2026-04-22 00:15 | 40.49302 | -74.86927 | 20464 ft | 352 kts | 235° |
| 2026-04-22 00:16 | 40.47634 | -74.89277 | 21084 ft | 356 kts | 235° |
| 2026-04-22 00:16 | 40.45940 | -74.91665 | 21680 ft | 359 kts | 235° |
| 2026-04-22 00:16 | 40.44229 | -74.94074 | 22253 ft | 363 kts | 235° |
| 2026-04-22 00:16 | 40.42503 | -74.96508 | 22850 ft | 366 kts | 235° |
| 2026-04-22 00:17 | 40.40752 | -74.98974 | 23428 ft | 370 kts | 235° |
| 2026-04-22 00:17 | 40.38987 | -75.01457 | 23973 ft | 373 kts | 235° |
| 2026-04-22 00:17 | 40.37230 | -75.03927 | 24478 ft | 376 kts | 235° |
| 2026-04-22 00:17 | 40.35434 | -75.06450 | 24969 ft | 380 kts | 234° |
| 2026-04-22 00:18 | 40.33620 | -75.08992 | 25535 ft | 382 kts | 234° |
| 2026-04-22 00:18 | 40.31799 | -75.11548 | 26053 ft | 385 kts | 234° |
| 2026-04-22 00:18 | 40.29959 | -75.14125 | 26539 ft | 388 kts | 234° |
| 2026-04-22 00:18 | 40.28108 | -75.16715 | 26992 ft | 391 kts | 234° |
| 2026-04-22 00:19 | 40.26242 | -75.19325 | 27437 ft | 394 kts | 234° |
| 2026-04-22 00:19 | 40.24362 | -75.21951 | 27876 ft | 396 kts | 234° |
| 2026-04-22 00:19 | 40.22471 | -75.24591 | 28317 ft | 399 kts | 234° |
| 2026-04-22 00:19 | 40.20588 | -75.27217 | 28740 ft | 402 kts | 234° |
| 2026-04-22 00:20 | 40.18669 | -75.29892 | 29128 ft | 404 kts | 233° |
| 2026-04-22 00:20 | 40.16733 | -75.32589 | 29552 ft | 407 kts | 233° |
| 2026-04-22 00:20 | 40.14781 | -75.35301 | 29883 ft | 412 kts | 233° |
| 2026-04-22 00:20 | 40.12816 | -75.38034 | 30129 ft | 418 kts | 233° |
| 2026-04-22 00:21 | 40.10816 | -75.40809 | 30625 ft | 417 kts | 233° |
| 2026-04-22 00:21 | 40.08827 | -75.43567 | 31128 ft | 414 kts | 233° |
| 2026-04-22 00:21 | 40.06858 | -75.46295 | 31662 ft | 411 kts | 233° |
| 2026-04-22 00:21 | 40.04918 | -75.48985 | 31857 ft | 410 kts | 233° |
| 2026-04-22 00:22 | 40.02963 | -75.51691 | 31921 ft | 409 kts | 233° |
| 2026-04-22 00:22 | 39.99026 | -75.57136 | 31947 ft | 415 kts | 232° |
| 2026-04-22 00:23 | 39.95064 | -75.62593 | 31976 ft | 415 kts | 232° |
| 2026-04-22 00:23 | 39.91169 | -75.68143 | 31981 ft | 412 kts | 236° |
| 2026-04-22 00:24 | 39.87527 | -75.73923 | 31958 ft | 412 kts | 237° |
| 2026-04-22 00:24 | 39.83931 | -75.79676 | 31958 ft | 410 kts | 237° |
| 2026-04-22 00:25 | 39.80330 | -75.85426 | 31962 ft | 410 kts | 237° |
| 2026-04-22 00:25 | 39.76738 | -75.91151 | 31956 ft | 410 kts | 237° |
| 2026-04-22 00:26 | 39.73118 | -75.96896 | 31956 ft | 410 kts | 237° |
| 2026-04-22 00:26 | 39.69510 | -76.02637 | 31953 ft | 410 kts | 237° |
| 2026-04-22 00:27 | 39.65911 | -76.08336 | 31950 ft | 410 kts | 237° |
| 2026-04-22 00:27 | 39.62300 | -76.14084 | 31961 ft | 410 kts | 237° |
| 2026-04-22 00:28 | 39.58656 | -76.19746 | 31959 ft | 410 kts | 236° |
| 2026-04-22 00:28 | 39.54984 | -76.25396 | 31955 ft | 409 kts | 236° |
| 2026-04-22 00:29 | 39.51329 | -76.31011 | 31956 ft | 410 kts | 236° |
| 2026-04-22 00:29 | 39.47650 | -76.36683 | 31950 ft | 409 kts | 236° |
| 2026-04-22 00:30 | 39.43731 | -76.42071 | 31936 ft | 414 kts | 232° |
| 2026-04-22 00:30 | 39.39705 | -76.47346 | 32084 ft | 414 kts | 231° |
| 2026-04-22 00:31 | 39.35694 | -76.52584 | 32202 ft | 408 kts | 232° |
| 2026-04-22 00:31 | 39.31707 | -76.57785 | 32166 ft | 408 kts | 232° |
| 2026-04-22 00:32 | 39.27688 | -76.63000 | 32302 ft | 413 kts | 231° |
| 2026-04-22 00:32 | 39.23638 | -76.68291 | 32247 ft | 414 kts | 231° |
| 2026-04-22 00:33 | 39.19572 | -76.73568 | 32255 ft | 414 kts | 231° |
| 2026-04-22 00:33 | 39.16189 | -76.77952 | 32276 ft | 414 kts | 231° |
| 2026-04-22 00:34 | 39.11457 | -76.84074 | 32274 ft | 414 kts | 231° |
| 2026-04-22 00:34 | 39.08046 | -76.88478 | 32255 ft | 415 kts | 232° |
| 2026-04-22 00:35 | 39.03983 | -76.93720 | 32260 ft | 416 kts | 232° |
| 2026-04-22 00:35 | 38.99880 | -76.99001 | 32254 ft | 416 kts | 232° |
| 2026-04-22 00:36 | 38.95822 | -77.04228 | 32265 ft | 416 kts | 232° |
| 2026-04-22 00:36 | 38.91651 | -77.09594 | 32248 ft | 431 kts | 231° |
| 2026-04-22 00:37 | 38.87341 | -77.15124 | 32250 ft | 446 kts | 231° |
| 2026-04-22 00:37 | 38.82925 | -77.20775 | 32226 ft | 446 kts | 231° |
| 2026-04-22 00:38 | 38.78575 | -77.26341 | 32221 ft | 443 kts | 231° |
| 2026-04-22 00:38 | 38.74228 | -77.31941 | 32217 ft | 444 kts | 231° |
| 2026-04-22 00:39 | 38.69684 | -77.37291 | 32242 ft | 446 kts | 229° |
| 2026-04-22 00:39 | 38.65063 | -77.42631 | 32246 ft | 447 kts | 229° |
| 2026-04-22 00:40 | 38.60454 | -77.47947 | 32246 ft | 447 kts | 229° |
| 2026-04-22 00:40 | 38.55817 | -77.53286 | 32237 ft | 447 kts | 229° |
| 2026-04-22 00:41 | 38.51195 | -77.58601 | 32231 ft | 447 kts | 229° |
| 2026-04-22 00:41 | 38.46614 | -77.63858 | 32231 ft | 445 kts | 229° |
| 2026-04-22 00:42 | 38.41986 | -77.69160 | 32235 ft | 446 kts | 229° |
| 2026-04-22 00:42 | 38.37350 | -77.74463 | 32237 ft | 447 kts | 229° |
| 2026-04-22 00:43 | 38.32742 | -77.79723 | 32237 ft | 446 kts | 229° |
| 2026-04-22 00:43 | 38.28102 | -77.85011 | 32228 ft | 447 kts | 229° |
| 2026-04-22 00:44 | 38.23489 | -77.90256 | 32223 ft | 448 kts | 229° |
| 2026-04-22 00:44 | 38.18832 | -77.95548 | 32221 ft | 448 kts | 229° |
| 2026-04-22 00:45 | 38.14191 | -78.00808 | 32225 ft | 446 kts | 229° |
| 2026-04-22 00:45 | 38.09576 | -78.06030 | 32211 ft | 446 kts | 229° |
| 2026-04-22 00:46 | 38.04928 | -78.11278 | 32215 ft | 446 kts | 229° |
| 2026-04-22 00:46 | 38.00450 | -78.16677 | 32223 ft | 440 kts | 235° |
| 2026-04-22 00:47 | 37.96371 | -78.22413 | 32241 ft | 439 kts | 236° |
| 2026-04-22 00:47 | 37.92307 | -78.28199 | 32233 ft | 439 kts | 236° |
| 2026-04-22 00:48 | 37.88260 | -78.33955 | 32235 ft | 439 kts | 236° |
| 2026-04-22 00:48 | 37.84184 | -78.39740 | 32231 ft | 439 kts | 236° |
| 2026-04-22 00:49 | 37.80110 | -78.45508 | 32235 ft | 439 kts | 235° |
| 2026-04-22 00:49 | 37.76050 | -78.51248 | 32231 ft | 439 kts | 235° |
| 2026-04-22 00:50 | 37.71970 | -78.57004 | 32238 ft | 439 kts | 235° |
| 2026-04-22 00:50 | 37.67885 | -78.62759 | 32239 ft | 439 kts | 235° |
| 2026-04-22 00:51 | 37.63815 | -78.68480 | 32209 ft | 440 kts | 235° |
| 2026-04-22 00:51 | 37.59694 | -78.74264 | 32244 ft | 442 kts | 235° |
| 2026-04-22 00:52 | 37.55607 | -78.79990 | 32240 ft | 441 kts | 235° |
| 2026-04-22 00:52 | 37.51489 | -78.85750 | 32246 ft | 442 kts | 235° |
| 2026-04-22 00:53 | 37.47387 | -78.91476 | 32243 ft | 441 kts | 235° |
| 2026-04-22 00:53 | 37.43262 | -78.97224 | 32240 ft | 442 kts | 235° |
| 2026-04-22 00:54 | 37.39130 | -79.02972 | 32247 ft | 442 kts | 235° |
| 2026-04-22 00:54 | 37.35702 | -79.07733 | 32226 ft | 440 kts | 235° |
| 2026-04-22 00:55 | 37.30917 | -79.14368 | 32243 ft | 440 kts | 235° |
| 2026-04-22 00:56 | 37.22519 | -79.24878 | 32230 ft | 451 kts | 224° |
| 2026-04-22 00:56 | 37.19990 | -79.27213 | 32251 ft | 450 kts | 224° |
| 2026-04-22 00:56 | 37.14928 | -79.31796 | 32260 ft | 451 kts | 223° |
| 2026-04-22 00:57 | 37.09821 | -79.36392 | 32249 ft | 451 kts | 223° |
| 2026-04-22 00:57 | 37.04706 | -79.40998 | 32263 ft | 450 kts | 224° |
| 2026-04-22 00:58 | 36.99606 | -79.45450 | 32246 ft | 444 kts | 221° |
| 2026-04-22 00:58 | 36.94489 | -79.49780 | 32272 ft | 445 kts | 221° |
| 2026-04-22 00:59 | 36.89351 | -79.54113 | 32260 ft | 445 kts | 221° |
| 2026-04-22 00:59 | 36.86787 | -79.56274 | 31689 ft | 443 kts | 221° |
| 2026-04-22 00:59 | 36.84268 | -79.58395 | 30849 ft | 440 kts | 221° |
| 2026-04-22 01:00 | 36.81743 | -79.60522 | 30063 ft | 435 kts | 221° |
| 2026-04-22 01:00 | 36.79235 | -79.62626 | 29230 ft | 430 kts | 221° |
| 2026-04-22 01:00 | 36.76770 | -79.64693 | 28404 ft | 424 kts | 221° |
| 2026-04-22 01:00 | 36.74353 | -79.66718 | 27636 ft | 419 kts | 221° |
| 2026-04-22 01:01 | 36.71922 | -79.68754 | 27441 ft | 416 kts | 221° |
| 2026-04-22 01:01 | 36.69552 | -79.70738 | 27352 ft | 415 kts | 220° |
| 2026-04-22 01:01 | 36.67152 | -79.72744 | 27311 ft | 414 kts | 220° |
| 2026-04-22 01:01 | 36.64756 | -79.74744 | 27290 ft | 414 kts | 221° |
| 2026-04-22 01:02 | 36.62357 | -79.76749 | 27284 ft | 414 kts | 220° |
| 2026-04-22 01:02 | 36.59953 | -79.78754 | 27277 ft | 414 kts | 220° |
| 2026-04-22 01:02 | 36.57587 | -79.80726 | 27276 ft | 413 kts | 220° |
| 2026-04-22 01:02 | 36.55199 | -79.82715 | 27254 ft | 413 kts | 220° |
| 2026-04-22 01:03 | 36.52803 | -79.84709 | 27268 ft | 414 kts | 220° |
| 2026-04-22 01:03 | 36.50415 | -79.86694 | 26580 ft | 411 kts | 220° |
| 2026-04-22 01:03 | 36.48040 | -79.88667 | 25829 ft | 408 kts | 220° |
| 2026-04-22 01:03 | 36.45720 | -79.90593 | 25125 ft | 404 kts | 220° |
| 2026-04-22 01:04 | 36.43395 | -79.92522 | 24561 ft | 397 kts | 220° |
| 2026-04-22 01:04 | 36.41096 | -79.94432 | 24419 ft | 399 kts | 220° |
| 2026-04-22 01:04 | 36.38791 | -79.96339 | 24341 ft | 397 kts | 220° |
| 2026-04-22 01:04 | 36.36484 | -79.98251 | 24298 ft | 396 kts | 220° |
| 2026-04-22 01:05 | 36.34186 | -80.00151 | 24284 ft | 397 kts | 220° |
| 2026-04-22 01:05 | 36.31875 | -80.02060 | 24268 ft | 400 kts | 220° |
| 2026-04-22 01:05 | 36.29591 | -80.03945 | 24273 ft | 399 kts | 220° |
| 2026-04-22 01:05 | 36.27276 | -80.05852 | 24230 ft | 399 kts | 220° |
| 2026-04-22 01:06 | 36.24958 | -80.07763 | 23935 ft | 399 kts | 220° |
| 2026-04-22 01:06 | 36.22645 | -80.09668 | 23629 ft | 398 kts | 220° |
| 2026-04-22 01:06 | 36.20343 | -80.11564 | 23287 ft | 396 kts | 220° |
| 2026-04-22 01:06 | 36.18080 | -80.13425 | 22938 ft | 394 kts | 220° |
| 2026-04-22 01:07 | 36.15807 | -80.15293 | 22295 ft | 390 kts | 220° |
| 2026-04-22 01:07 | 36.13551 | -80.17148 | 21555 ft | 387 kts | 219° |
| 2026-04-22 01:07 | 36.11340 | -80.18959 | 21163 ft | 375 kts | 219° |
| 2026-04-22 01:07 | 36.09157 | -80.20752 | 20246 ft | 378 kts | 220° |
| 2026-04-22 01:08 | 36.06996 | -80.22525 | 19549 ft | 377 kts | 219° |
| 2026-04-22 01:08 | 36.04814 | -80.24312 | 18911 ft | 374 kts | 219° |
| 2026-04-22 01:08 | 36.02649 | -80.26084 | 18242 ft | 371 kts | 219° |
| 2026-04-22 01:08 | 36.00508 | -80.27834 | 17557 ft | 367 kts | 219° |
| 2026-04-22 01:09 | 35.98384 | -80.29571 | 16905 ft | 363 kts | 218° |
| 2026-04-22 01:09 | 35.96307 | -80.31269 | 16272 ft | 360 kts | 218° |
| 2026-04-22 01:09 | 35.94224 | -80.32971 | 15652 ft | 356 kts | 218° |
| 2026-04-22 01:09 | 35.92204 | -80.34616 | 14719 ft | 339 kts | 218° |
| 2026-04-22 01:10 | 35.90281 | -80.36195 | 13503 ft | 333 kts | 217° |
| 2026-04-22 01:10 | 35.88333 | -80.37779 | 13221 ft | 340 kts | 217° |
| 2026-04-22 01:10 | 35.86375 | -80.39362 | 13117 ft | 329 kts | 216° |
| 2026-04-22 01:10 | 35.84488 | -80.40846 | 13024 ft | 312 kts | 217° |
| 2026-04-22 01:11 | 35.82786 | -80.42371 | 12986 ft | 301 kts | 221° |
| 2026-04-22 01:11 | 35.81125 | -80.43955 | 12998 ft | 302 kts | 222° |
| 2026-04-22 01:11 | 35.79454 | -80.45567 | 12848 ft | 304 kts | 222° |
| 2026-04-22 01:11 | 35.77783 | -80.47161 | 12608 ft | 304 kts | 219° |
| 2026-04-22 01:12 | 35.75952 | -80.48495 | 12336 ft | 305 kts | 212° |
| 2026-04-22 01:12 | 35.74070 | -80.49666 | 12053 ft | 304 kts | 210° |
| 2026-04-22 01:12 | 35.72154 | -80.50775 | 11758 ft | 303 kts | 208° |
| 2026-04-22 01:12 | 35.70212 | -80.51790 | 11457 ft | 303 kts | 203° |
| 2026-04-22 01:13 | 35.68235 | -80.52598 | 11168 ft | 302 kts | 201° |
| 2026-04-22 01:13 | 35.66234 | -80.53381 | 10850 ft | 300 kts | 201° |
| 2026-04-22 01:13 | 35.64246 | -80.54145 | 10547 ft | 298 kts | 200° |
| 2026-04-22 01:13 | 35.62266 | -80.54905 | 10243 ft | 296 kts | 200° |
| 2026-04-22 01:14 | 35.60334 | -80.55669 | 9914 ft | 293 kts | 204° |
| 2026-04-22 01:14 | 35.58564 | -80.56842 | 9567 ft | 287 kts | 220° |
| 2026-04-22 01:14 | 35.57147 | -80.58507 | 9359 ft | 276 kts | 235° |
| 2026-04-22 01:14 | 35.56204 | -80.60488 | 9158 ft | 264 kts | 251° |
| 2026-04-22 01:15 | 35.55782 | -80.62679 | 9092 ft | 265 kts | 267° |
| 2026-04-22 01:15 | 35.55852 | -80.64911 | 9050 ft | 257 kts | 278° |
| 2026-04-22 01:15 | 35.56097 | -80.67066 | 9032 ft | 256 kts | 280° |
| 2026-04-22 01:15 | 35.56377 | -80.69236 | 9028 ft | 257 kts | 280° |
| 2026-04-22 01:16 | 35.56645 | -80.71411 | 9029 ft | 257 kts | 279° |
| 2026-04-22 01:16 | 35.56762 | -80.73584 | 9030 ft | 258 kts | 272° |
| 2026-04-22 01:16 | 35.56636 | -80.75789 | 9031 ft | 259 kts | 265° |
| 2026-04-22 01:16 | 35.56455 | -80.77987 | 9022 ft | 259 kts | 267° |
| 2026-04-22 01:17 | 35.56333 | -80.80188 | 9027 ft | 258 kts | 269° |
| 2026-04-22 01:17 | 35.56160 | -80.82391 | 9026 ft | 259 kts | 265° |
| 2026-04-22 01:17 | 35.55885 | -80.84575 | 8719 ft | 259 kts | 258° |
| 2026-04-22 01:17 | 35.55197 | -80.86636 | 8303 ft | 263 kts | 242° |
| 2026-04-22 01:18 | 35.54171 | -80.88470 | 7912 ft | 263 kts | 240° |
| 2026-04-22 01:18 | 35.53173 | -80.90351 | 7495 ft | 263 kts | 237° |
| 2026-04-22 01:18 | 35.51982 | -80.92072 | 7089 ft | 264 kts | 230° |
| 2026-04-22 01:18 | 35.50646 | -80.93529 | 6538 ft | 256 kts | 218° |
| 2026-04-22 01:19 | 35.49052 | -80.94521 | 5716 ft | 256 kts | 205° |
| 2026-04-22 01:19 | 35.47366 | -80.95193 | 4937 ft | 252 kts | 198° |
| 2026-04-22 01:19 | 35.45666 | -80.95469 | 4486 ft | 238 kts | 186° |
| 2026-04-22 01:19 | 35.44060 | -80.95453 | 4490 ft | 229 kts | 181° |
| 2026-04-22 01:20 | 35.42533 | -80.95338 | 4849 ft | 209 kts | 181° |
| 2026-04-22 01:20 | 35.41036 | -80.95217 | 5011 ft | 216 kts | 180° |
| 2026-04-22 01:20 | 35.39568 | -80.95084 | 4850 ft | 208 kts | 179° |
| 2026-04-22 01:20 | 35.38142 | -80.94910 | 4468 ft | 208 kts | 178° |
| 2026-04-22 01:21 | 35.36692 | -80.94722 | 3875 ft | 208 kts | 179° |
| 2026-04-22 01:21 | 35.35342 | -80.94590 | 3597 ft | 189 kts | 181° |
| 2026-04-22 01:21 | 35.34051 | -80.94539 | 3268 ft | 179 kts | 183° |
| 2026-04-22 01:21 | 35.32865 | -80.94495 | 3035 ft | 166 kts | 180° |
| 2026-04-22 01:22 | 35.31739 | -80.94378 | 2687 ft | 159 kts | 180° |
| 2026-04-22 01:22 | 35.30669 | -80.94285 | 2467 ft | 148 kts | 181° |
| 2026-04-22 01:22 | 35.29643 | -80.94199 | 2291 ft | 147 kts | 180° |
| 2026-04-22 01:22 | 35.28620 | -80.94109 | 2080 ft | 147 kts | 180° |
| 2026-04-22 01:23 | 35.27680 | -80.94047 | 1864 ft | 127 kts | 180° |
| 2026-04-22 01:23 | 35.26815 | -80.93984 | 1651 ft | 125 kts | 180° |
| 2026-04-22 01:23 | 35.25954 | -80.93903 | 1488 ft | 127 kts | 178° |
| 2026-04-22 01:23 | 35.25057 | -80.93833 | 1296 ft | 129 kts | 176° |
| 2026-04-22 01:24 | 35.24159 | -80.93757 | 1126 ft | 129 kts | 177° |
| 2026-04-22 01:24 | 35.23271 | -80.93682 | 933 ft | 127 kts | 176° |
| 2026-04-22 01:24 | 35.22389 | -80.93608 | 749 ft | 127 kts | 177° |
| 2026-04-22 01:24 | 35.21648 | -80.93549 | 722 ft | 68 kts | 174° |
| 2026-04-22 01:25 | 35.21301 | -80.93516 | 719 ft | 43 kts | 177° |
| 2026-04-22 01:25 | 35.21080 | -80.93506 | 719 ft | 28 kts | 184° |
| 2026-04-22 01:25 | 35.20951 | -80.93545 | 714 ft | 11 kts | 234° |
| 2026-04-22 01:25 | 35.20945 | -80.93632 | 715 ft | 10 kts | 266° |
| 2026-04-22 01:26 | 35.20943 | -80.93649 | 715 ft | 1 kts | 260° |
| 2026-04-22 01:26 | 35.20941 | -80.93665 | 717 ft | 3 kts | 269° |
| 2026-04-22 01:26 | 35.20939 | -80.93705 | 719 ft | 7 kts | 265° |
| 2026-04-22 01:26 | 35.20937 | -80.93738 | 715 ft | 3 kts | 269° |